Hovedside
METAR-TAF:

METAR-TAF

Lufthavner :

Keetmanshoop, Namibia

breddegrad: 26-32S, lengdegrad: 018-07E, høyde over havet: 1067 m

Gjeldene værobservasjon

Denne rapporten ble laget for 1 time og 6 minutter siden, klokken 14:00 UTC
Vind 10 kt fra Sørvest
Temperatur 20°C
Luftfuktighet 26%
Trykk 1021 hPa

METAR: FYKT 181400Z AUTO 22010KT //// // ////// 20/00 Q1021

Tid: 17:06 (15:06 UTC)

Varsel

Denne rapporten ble laget for 5 timer og 6 minutter siden, klokken 10:00 UTC
Varsel gyldig fra 18. klokken 12 UTC til 19. klokken 12 UTC
Vind 4 kt fra Sørvest
Sikt 10 km eller mer
ingen skyer under 1500 m og ingen bygeskyer
Blir
fra 18. klokken 13 UTC til 18. klokken 15 UTC
Vind 13 kt fra Sør-sørvest

TAF: FYKT 181000Z 1812/1912 23004KT CAVOK BECMG 1813/1815 21013KT

Værobservasjoner og værvarsel for over 4000 flyplasser (METAR- og TAF-rapporter).

Tilgjengelige stasjoner er representert av de røde og gule prikkene på kartet.

Hold musepekeren over prikken for å se navnet på stasjonen.

Klikk så for å se værobservasjoner og -varsler.

For å forandre kartet kan du klikke på den grønne knappen med svart kryss for å zoome inn, på den grønne knappen med strek for å zoome ut, eller på de grønne pilene for å se tilstøtende kart.


METAR-TAF: